TimeMST,TemperatureF,Dew PointF,Humidity,Sea Level PressureIn,VisibilityMPH,Wind Direction,Wind SpeedMPH,Gust SpeedMPH,PrecipitationIn,Events,Conditions,WindDirDegrees,DateUTC
12:53 AM,41.0,26.1,55,29.85,10.0,North,10.4,17.3,N/A,,Clear,360,2012-11-08 07:53:00
1:53 AM,37.0,30.0,76,29.88,10.0,North,11.5,-,N/A,,Clear,350,2012-11-08 08:53:00
2:53 AM,34.0,28.0,79,29.93,10.0,Calm,Calm,-,N/A,,Clear,0,2012-11-08 09:53:00
3:53 AM,30.0,26.1,85,29.94,10.0,NE,5.8,-,N/A,,Clear,50,2012-11-08 10:53:00
4:46 AM,32.0,26.6,80,30.01,10.0,NNE,8.1,-,N/A,,Mostly Cloudy,30,2012-11-08 11:46:00
4:53 AM,30.9,27.0,85,29.98,10.0,NNE,8.1,-,N/A,,Scattered Clouds,30,2012-11-08 11:53:00
5:53 AM,28.0,25.0,88,29.99,10.0,NE,5.8,-,N/A,,Scattered Clouds,40,2012-11-08 12:53:00
6:53 AM,28.0,25.0,88,30.00,10.0,ENE,6.9,-,N/A,,Clear,60,2012-11-08 13:53:00
7:53 AM,32.0,26.1,79,29.99,10.0,NE,6.9,-,N/A,,Clear,50,2012-11-08 14:53:00
8:53 AM,39.0,24.1,55,29.95,10.0,East,17.3,21.9,N/A,,Clear,80,2012-11-08 15:53:00
9:53 AM,42.1,24.1,49,29.91,10.0,East,13.8,-,N/A,,Clear,80,2012-11-08 16:53:00
10:53 AM,45.0,24.1,44,29.88,10.0,East,13.8,-,N/A,,Clear,90,2012-11-08 17:53:00
11:53 AM,46.9,24.1,41,29.82,10.0,East,13.8,-,N/A,,Clear,90,2012-11-08 18:53:00
12:53 PM,51.1,25.0,36,29.76,10.0,East,11.5,20.7,N/A,,Clear,90,2012-11-08 19:53:00
1:53 PM,53.1,26.1,35,29.73,10.0,East,12.7,-,N/A,,Clear,80,2012-11-08 20:53:00
2:53 PM,54.0,27.0,35,29.71,10.0,East,10.4,-,N/A,,Clear,90,2012-11-08 21:53:00
3:53 PM,52.0,27.0,38,29.72,10.0,East,12.7,-,N/A,,Clear,80,2012-11-08 22:53:00
4:53 PM,46.9,27.0,46,29.73,10.0,East,12.7,-,N/A,,Clear,100,2012-11-08 23:53:00
5:53 PM,44.1,28.0,53,29.75,10.0,Variable,4.6,-,N/A,,Clear,0,2012-11-09 00:53:00
6:53 PM,34.0,25.0,70,29.79,10.0,North,5.8,-,N/A,,Clear,10,2012-11-09 01:53:00
7:53 PM,36.0,27.0,70,29.75,10.0,Calm,Calm,-,N/A,,Clear,0,2012-11-09 02:53:00
8:53 PM,30.9,24.1,76,29.73,10.0,NW,3.5,-,N/A,,Clear,310,2012-11-09 03:53:00
9:53 PM,30.0,24.1,79,29.71,10.0,NNE,5.8,-,N/A,,Clear,20,2012-11-09 04:53:00
10:53 PM,28.9,24.1,82,29.70,10.0,WNW,6.9,-,N/A,,Clear,300,2012-11-09 05:53:00
11:53 PM,30.0,24.1,79,29.67,10.0,NNW,6.9,-,N/A,,Clear,330,2012-11-09 06:53:00